createdAt,value
2023-04-01T00:01:52.699Z,47
2023-04-01T00:11:52.654Z,44
2023-04-01T00:21:52.545Z,41
2023-04-01T00:31:52.615Z,52
2023-04-01T00:41:52.455Z,64
2023-04-01T00:51:52.351Z,60
2023-04-01T01:01:52.354Z,72
2023-04-01T01:11:52.206Z,75
2023-04-01T01:21:52.170Z,99
2023-04-01T01:31:52.029Z,96
2023-04-01T01:41:52.133Z,86
2023-04-01T01:51:51.925Z,84
2023-04-01T02:01:51.876Z,96
2023-04-01T02:11:51.821Z,99
2023-04-01T02:21:51.663Z,99
2023-04-01T02:31:51.757Z,98
2023-04-01T02:41:51.619Z,99
2023-04-01T02:51:51.461Z,99
2023-04-01T03:01:51.380Z,96
2023-04-01T03:11:51.304Z,89
2023-04-01T03:21:51.277Z,99
2023-04-01T03:31:51.150Z,90
2023-04-01T03:41:51.181Z,81
2023-04-01T03:51:51.132Z,84
2023-04-01T04:01:50.933Z,85
2023-04-01T04:11:50.865Z,72
2023-04-01T04:21:50.862Z,69
2023-04-01T04:31:50.769Z,80
2023-04-01T04:41:50.706Z,99
2023-04-01T04:51:50.599Z,99
2023-04-01T05:01:50.651Z,99
2023-04-01T05:11:50.462Z,99
2023-04-01T05:21:50.361Z,99
2023-04-01T05:31:50.279Z,99
2023-04-01T05:41:50.290Z,99
2023-04-01T05:51:50.253Z,99
2023-04-01T06:01:50.262Z,99
2023-04-01T06:11:50.042Z,99
2023-04-01T06:21:50.051Z,99
2023-04-01T06:31:49.914Z,99
2023-04-01T06:41:49.967Z,99
2023-04-01T06:51:49.755Z,99
2023-04-01T07:01:50.000Z,99
2023-04-01T07:11:49.571Z,99
2023-04-01T07:21:49.586Z,99
2023-04-01T07:31:49.685Z,99
2023-04-01T07:41:49.383Z,99
2023-04-01T07:51:49.475Z,99
2023-04-01T08:01:49.232Z,99
2023-04-01T08:11:49.159Z,99
2023-04-01T08:21:49.107Z,99
2023-04-01T08:31:49.178Z,99
2023-04-01T08:41:49.018Z,99
2023-04-01T08:51:48.923Z,99
2023-04-01T09:01:48.888Z,99
2023-04-01T09:11:50.320Z,99
2023-04-01T09:21:48.766Z,99
2023-04-01T09:31:48.680Z,99
2023-04-01T09:41:48.542Z,99
2023-04-01T09:51:48.523Z,99
2023-04-01T10:01:48.626Z,99
2023-04-01T10:11:48.518Z,99
2023-04-01T10:21:48.273Z,99
2023-04-01T10:31:48.668Z,99
2023-04-01T10:41:48.235Z,99
2023-04-01T10:51:48.203Z,99
2023-04-01T11:11:47.919Z,99
2023-04-01T11:21:47.857Z,99
2023-04-01T11:31:47.940Z,99
2023-04-01T11:41:48.147Z,99
2023-04-01T11:51:47.872Z,99
2023-04-01T12:01:47.566Z,99
2023-04-01T12:11:47.693Z,99
2023-04-01T12:21:47.406Z,99
2023-04-01T12:31:47.693Z,99
2023-04-01T12:41:47.333Z,99
2023-04-01T12:51:47.899Z,99
2023-04-01T13:01:47.266Z,99
2023-04-01T13:11:47.115Z,99
2023-04-01T13:21:47.569Z,99
2023-04-01T13:31:47.035Z,99
2023-04-01T13:41:46.924Z,99
2023-04-01T13:51:46.768Z,99
2023-04-01T14:01:46.831Z,99
2023-04-01T14:11:46.668Z,99
2023-04-01T14:21:46.615Z,99
2023-04-01T14:31:46.566Z,1
2023-04-01T14:41:46.497Z,1
2023-04-01T14:51:46.345Z,1
2023-04-01T15:01:48.811Z,1
2023-04-01T15:11:46.234Z,99
2023-04-01T15:21:46.180Z,99
2023-04-01T15:31:46.217Z,99
2023-04-01T15:41:46.122Z,99
2023-04-01T15:51:45.962Z,99
2023-04-01T16:01:45.977Z,99
2023-04-01T16:11:45.920Z,1
2023-04-01T16:21:45.880Z,1
2023-04-01T16:31:45.742Z,1
2023-04-01T16:41:45.594Z,1
2023-04-01T16:51:45.631Z,1
2023-04-01T17:01:45.505Z,1
2023-04-01T17:11:45.470Z,1
2023-04-01T17:21:45.399Z,1
2023-04-01T17:31:45.274Z,1
2023-04-01T17:41:45.212Z,1
2023-04-01T17:51:45.216Z,1
2023-04-01T18:01:45.295Z,1
2023-04-01T18:11:44.949Z,1
2023-04-01T18:21:44.879Z,1
2023-04-01T18:31:44.913Z,1
2023-04-01T18:41:44.829Z,1
2023-04-01T18:51:44.694Z,1
2023-04-01T19:01:44.745Z,1
2023-04-01T19:11:44.555Z,1
2023-04-01T19:21:44.517Z,1
2023-04-01T19:31:44.382Z,1
2023-04-01T19:41:44.346Z,1
2023-04-01T19:51:44.274Z,1
2023-04-01T20:01:45.567Z,1
2023-04-01T20:11:44.148Z,1
2023-04-01T20:21:44.108Z,99
2023-04-01T20:31:44.064Z,99
2023-04-01T20:41:43.919Z,99
2023-04-01T20:51:43.920Z,99
2023-04-01T21:01:44.020Z,99
2023-04-01T21:11:43.715Z,99
2023-04-01T21:21:43.653Z,99
2023-04-01T21:31:43.666Z,99
2023-04-01T21:41:43.544Z,99
2023-04-01T21:51:43.516Z,99
2023-04-01T22:01:43.532Z,99
2023-04-01T22:11:43.275Z,99
2023-04-01T22:21:43.199Z,99
2023-04-01T22:31:43.162Z,99
2023-04-01T22:41:43.144Z,87
2023-04-01T22:51:43.064Z,79
2023-04-01T23:01:45.245Z,86
2023-04-01T23:11:42.882Z,82
2023-04-01T23:21:42.826Z,73
2023-04-01T23:31:42.800Z,54
2023-04-01T23:41:42.638Z,45
2023-04-01T23:51:42.549Z,32
